createdAt,value
2023-06-19T00:01:21.705Z,97554.77
2023-06-19T00:03:49.594Z,97551.55
2023-06-19T00:06:17.998Z,97547.46
2023-06-19T00:08:45.998Z,97545.26
2023-06-19T00:11:14.221Z,97545.55
2023-06-19T00:13:42.390Z,97549.01
2023-06-19T00:16:11.021Z,97553.91
2023-06-19T00:18:42.198Z,97555.55
2023-06-19T00:21:10.367Z,97551.64
2023-06-19T00:23:38.697Z,97550.96
2023-06-19T00:26:07.877Z,97551.91
2023-06-19T00:28:40.224Z,97555.77
2023-06-19T00:31:08.268Z,97555.05
2023-06-19T00:33:36.313Z,97550.96
2023-06-19T00:36:10.182Z,97550.09
2023-06-19T00:38:40.591Z,97556.29
2023-06-19T00:41:09.402Z,97562.35
2023-06-19T00:43:38.079Z,97566.02
2023-06-19T00:46:06.098Z,97565.75
2023-06-19T00:48:35.686Z,97568.36
2023-06-19T00:51:04.118Z,97565.35
2023-06-19T00:53:35.755Z,97562.27
2023-06-19T00:56:05.153Z,97556.05
2023-06-19T00:58:33.620Z,97557.27
2023-06-19T01:01:08.810Z,97558.59
2023-06-19T01:03:38.647Z,97561.16
2023-06-19T01:06:15.586Z,97558.93
2023-06-19T01:08:58.728Z,97552.89
2023-06-19T01:11:33.074Z,97552.63
2023-06-19T01:14:07.387Z,97554.55
2023-06-19T01:16:36.675Z,97547.29
2023-06-19T01:19:06.601Z,97543.27
2023-06-19T01:21:35.600Z,97542.90
2023-06-19T01:24:06.102Z,97539.42
2023-06-19T01:26:34.413Z,97539.94
2023-06-19T01:29:02.453Z,97537.05
2023-06-19T01:32:00.351Z,97534.66
2023-06-19T01:34:31.679Z,97525.50
2023-06-19T01:37:00.638Z,97525.88
2023-06-19T01:39:29.728Z,97525.91
2023-06-19T01:41:58.977Z,97524.45
2023-06-19T01:44:27.551Z,97526.33
2023-06-19T01:46:55.706Z,97524.86
2023-06-19T01:49:23.866Z,97522.83
2023-06-19T01:51:51.978Z,97520.75
2023-06-19T01:54:19.864Z,97518.31
2023-06-19T01:56:48.085Z,97520.25
2023-06-19T01:59:16.080Z,97520.21
2023-06-19T02:01:44.314Z,97522.85
2023-06-19T02:04:12.512Z,97524.13
2023-06-19T02:06:40.588Z,97521.63
2023-06-19T02:09:09.225Z,97523.98
2023-06-19T02:11:40.101Z,97519.27
2023-06-19T02:14:08.149Z,97518.85
2023-06-19T02:16:36.406Z,97519.56
2023-06-19T02:19:04.622Z,97521.92
2023-06-19T02:21:32.553Z,97521.88
2023-06-19T02:24:00.792Z,97520.45
2023-06-19T02:26:30.432Z,97521.19
2023-06-19T02:28:58.337Z,97524.16
2023-06-19T02:31:26.263Z,97528.75
2023-06-19T02:33:54.182Z,97530.52
2023-06-19T02:36:22.498Z,97533.63
2023-06-19T02:38:50.602Z,97537.00
2023-06-19T02:41:19.583Z,97540.66
2023-06-19T02:43:48.202Z,97543.24
2023-06-19T02:46:16.430Z,97544.67
2023-06-19T02:48:44.559Z,97542.91
2023-06-19T02:51:12.682Z,97541.10
2023-06-19T02:53:41.582Z,97540.09
2023-06-19T02:56:14.568Z,97543.79
2023-06-19T02:58:42.684Z,97544.60
2023-06-19T03:01:10.654Z,97544.05
2023-06-19T03:03:39.305Z,97548.27
2023-06-19T03:06:08.723Z,97554.86
2023-06-19T03:08:37.845Z,97557.92
2023-06-19T03:11:06.663Z,97559.39
2023-06-19T03:13:52.836Z,97561.23
2023-06-19T03:16:22.242Z,97565.27
2023-06-19T03:18:53.086Z,97566.23
2023-06-19T03:21:23.347Z,97568.68
2023-06-19T03:23:51.503Z,97566.52
2023-06-19T03:26:22.618Z,97569.56
2023-06-19T03:28:50.648Z,97568.51
2023-06-19T03:31:18.808Z,97571.03
2023-06-19T03:33:46.828Z,97571.11
2023-06-19T03:36:15.207Z,97565.80
2023-06-19T03:38:56.534Z,97567.80
2023-06-19T03:41:27.530Z,97571.95
2023-06-19T03:43:55.762Z,97566.79
2023-06-19T03:46:25.307Z,97566.91
2023-06-19T03:48:53.393Z,97566.41
2023-06-19T03:51:22.283Z,97562.73
2023-06-19T03:53:50.709Z,97561.45
2023-06-19T03:56:19.179Z,97562.83
2023-06-19T03:58:47.137Z,97565.70
2023-06-19T04:01:15.067Z,97564.48
2023-06-19T04:03:43.626Z,97560.69
2023-06-19T04:06:11.613Z,97562.27
2023-06-19T04:08:41.450Z,97561.61
2023-06-19T04:11:13.256Z,97556.56
2023-06-19T04:13:41.678Z,97556.94
2023-06-19T04:16:09.983Z,97555.50
2023-06-19T04:18:38.045Z,97554.76
2023-06-19T04:21:06.544Z,97551.41
2023-06-19T04:23:34.649Z,97546.83
2023-06-19T04:26:03.281Z,97549.29
2023-06-19T04:28:31.299Z,97551.83
2023-06-19T04:31:02.196Z,97555.92
2023-06-19T04:33:30.878Z,97558.50
2023-06-19T04:35:59.081Z,97558.05
2023-06-19T04:38:27.167Z,97560.24
2023-06-19T04:40:55.357Z,97557.02
2023-06-19T04:43:25.749Z,97557.04
2023-06-19T04:45:54.770Z,97554.77
2023-06-19T04:48:27.186Z,97553.27
2023-06-19T04:50:57.937Z,97554.51
2023-06-19T04:53:26.373Z,97552.17
2023-06-19T04:55:56.190Z,97548.42
2023-06-19T04:58:24.138Z,97547.21
2023-06-19T05:00:53.468Z,97546.51
2023-06-19T05:03:23.201Z,97544.92
2023-06-19T05:05:51.532Z,97546.04
2023-06-19T05:08:19.460Z,97546.28
2023-06-19T05:10:47.436Z,97544.14
2023-06-19T05:13:15.474Z,97548.27
2023-06-19T05:15:43.552Z,97550.36
2023-06-19T05:18:11.616Z,97551.34
2023-06-19T05:20:39.726Z,97554.73
2023-06-19T05:23:07.844Z,97555.20
2023-06-19T05:25:35.821Z,97556.77
2023-06-19T05:28:06.067Z,97554.75
2023-06-19T05:30:34.337Z,97559.73
2023-06-19T05:33:02.529Z,97567.84
2023-06-19T05:35:31.555Z,97574.36
2023-06-19T05:37:59.567Z,97579.30
2023-06-19T05:40:28.807Z,97580.98
2023-06-19T05:42:57.320Z,97583.11
2023-06-19T05:45:25.296Z,97582.49
2023-06-19T05:47:53.329Z,97585.00
2023-06-19T05:50:21.429Z,97586.27
2023-06-19T05:52:49.541Z,97589.14
2023-06-19T05:55:17.623Z,97588.98
2023-06-19T05:57:45.842Z,97592.52
2023-06-19T06:00:17.561Z,97593.55
2023-06-19T06:02:46.013Z,97593.33
2023-06-19T06:05:14.447Z,97594.67
2023-06-19T06:07:42.370Z,97592.35
2023-06-19T06:10:11.117Z,97593.78
2023-06-19T06:12:39.128Z,97593.77
2023-06-19T06:15:07.756Z,97594.73
2023-06-19T06:17:36.393Z,97594.33
2023-06-19T06:20:13.808Z,97596.06
2023-06-19T06:22:43.264Z,97592.67
2023-06-19T06:25:13.214Z,97593.17
2023-06-19T06:27:43.222Z,97597.80
2023-06-19T06:30:13.057Z,97595.08
2023-06-19T06:32:41.203Z,97597.00
2023-06-19T06:35:09.786Z,97596.66
2023-06-19T06:37:38.113Z,97594.46
2023-06-19T06:40:10.807Z,97594.23
2023-06-19T06:42:40.093Z,97596.77
2023-06-19T06:45:09.021Z,97591.61
2023-06-19T06:47:37.048Z,97593.16
2023-06-19T06:50:05.746Z,97593.23
2023-06-19T06:52:34.019Z,97596.07
2023-06-19T06:55:02.073Z,97593.58
2023-06-19T06:57:30.053Z,97593.23
2023-06-19T06:59:58.277Z,97594.95
2023-06-19T07:02:26.453Z,97592.98
2023-06-19T07:04:54.764Z,97593.97
2023-06-19T07:07:22.794Z,97592.05
2023-06-19T07:09:50.942Z,97593.23
2023-06-19T07:12:18.970Z,97594.30
2023-06-19T07:14:46.912Z,97599.16
2023-06-19T07:17:14.812Z,97598.63
2023-06-19T07:19:42.808Z,97598.27
2023-06-19T07:22:10.953Z,97600.14
2023-06-19T07:24:39.136Z,97597.05
2023-06-19T07:27:07.879Z,97596.35
2023-06-19T07:29:35.967Z,97596.55
2023-06-19T07:32:05.729Z,97603.00
2023-06-19T07:34:33.910Z,97605.88
2023-06-19T07:37:01.905Z,97607.94
2023-06-19T07:39:29.876Z,97606.64
2023-06-19T07:41:57.986Z,97612.32
2023-06-19T07:44:26.274Z,97614.89
2023-06-19T07:46:54.367Z,97612.90
2023-06-19T07:49:22.404Z,97610.18
2023-06-19T07:51:50.397Z,97607.24
2023-06-19T07:54:18.473Z,97608.10
2023-06-19T07:56:46.404Z,97613.23
2023-06-19T07:59:15.427Z,97606.71
2023-06-19T08:01:43.713Z,97605.73
2023-06-19T08:04:12.161Z,97607.80
2023-06-19T08:06:40.152Z,97606.48
2023-06-19T08:09:08.460Z,97608.44
2023-06-19T08:11:38.499Z,97609.20
2023-06-19T08:14:06.548Z,97606.30
2023-06-19T08:16:34.575Z,97608.14
2023-06-19T08:19:03.372Z,97610.09
2023-06-19T08:21:31.352Z,97605.73
2023-06-19T08:23:59.744Z,97606.94
2023-06-19T08:26:27.865Z,97602.63
2023-06-19T08:28:56.237Z,97603.02
2023-06-19T08:31:28.595Z,97602.69
2023-06-19T08:33:57.167Z,97602.89
2023-06-19T08:36:25.470Z,97600.40
2023-06-19T08:38:53.969Z,97601.98
2023-06-19T08:41:22.208Z,97600.70
2023-06-19T08:43:50.256Z,97600.09
2023-06-19T08:46:20.073Z,97601.48
2023-06-19T08:48:57.199Z,97598.91
2023-06-19T08:51:28.082Z,97600.14
2023-06-19T08:53:57.898Z,97602.95
2023-06-19T08:56:25.778Z,97598.23
2023-06-19T08:58:54.859Z,97598.88
2023-06-19T09:01:24.721Z,97595.32
2023-06-19T09:03:54.032Z,97591.73
2023-06-19T09:06:22.342Z,97589.80
2023-06-19T09:09:01.074Z,97581.83
2023-06-19T09:11:29.572Z,97574.66
2023-06-19T09:13:59.748Z,97573.94
2023-06-19T09:16:39.014Z,97573.61
2023-06-19T09:19:08.043Z,97568.55
2023-06-19T09:21:39.543Z,97570.10
2023-06-19T09:24:09.415Z,97565.14
2023-06-19T09:26:38.227Z,97562.09
2023-06-19T09:29:15.973Z,97561.89
2023-06-19T09:31:45.745Z,97563.59
2023-06-19T09:34:13.720Z,97564.67
2023-06-19T09:36:42.655Z,97558.84
2023-06-19T09:39:12.025Z,97559.59
2023-06-19T09:41:42.058Z,97559.82
2023-06-19T09:44:13.954Z,97566.11
2023-06-19T09:46:47.197Z,97562.63
2023-06-19T09:49:17.172Z,97563.09
2023-06-19T09:51:45.428Z,97557.26
2023-06-19T09:54:15.857Z,97556.46
2023-06-19T09:56:44.503Z,97561.47
2023-06-19T09:59:14.764Z,97558.02
2023-06-19T10:01:44.138Z,97559.17
2023-06-19T10:04:13.776Z,97556.11
2023-06-19T10:06:46.433Z,97555.35
2023-06-19T10:09:19.640Z,97554.02
2023-06-19T10:11:54.779Z,97559.08
2023-06-19T10:14:24.069Z,97558.22
2023-06-19T10:16:52.472Z,97549.62
2023-06-19T10:19:23.605Z,97544.73
2023-06-19T10:21:56.563Z,97544.91
2023-06-19T10:24:26.739Z,97542.95
2023-06-19T10:27:01.159Z,97540.61
2023-06-19T10:30:15.046Z,97535.31
2023-06-19T10:32:44.308Z,97534.11
2023-06-19T10:35:17.365Z,97533.16
2023-06-19T10:37:46.256Z,97534.93
2023-06-19T10:40:14.427Z,97535.21
2023-06-19T10:42:44.066Z,97532.80
2023-06-19T10:45:14.748Z,97531.86
2023-06-19T10:47:43.013Z,97531.98
2023-06-19T10:50:15.571Z,97533.73
2023-06-19T10:52:48.789Z,97528.38
2023-06-19T10:55:16.774Z,97526.83
2023-06-19T10:57:50.077Z,97525.05
2023-06-19T11:00:34.375Z,97524.38
2023-06-19T11:03:02.392Z,97520.10
2023-06-19T11:05:30.522Z,97516.27
2023-06-19T11:08:00.759Z,97520.88
2023-06-19T11:10:30.272Z,97516.90
2023-06-19T11:13:00.415Z,97510.98
2023-06-19T11:15:35.947Z,97514.23
2023-06-19T11:18:04.516Z,97511.96
2023-06-19T11:20:44.840Z,97510.39
2023-06-19T11:23:14.265Z,97510.00
2023-06-19T11:25:43.373Z,97505.63
2023-06-19T11:28:23.606Z,97501.73
2023-06-19T11:31:00.718Z,97498.09
2023-06-19T11:33:29.182Z,97498.25
2023-06-19T11:36:01.938Z,97493.14
2023-06-19T11:38:30.197Z,97492.17
2023-06-19T11:40:58.513Z,97488.86
2023-06-19T11:43:33.854Z,97484.10
2023-06-19T11:46:06.556Z,97488.30
2023-06-19T11:48:38.443Z,97489.02
2023-06-19T11:51:06.823Z,97490.02
2023-06-19T11:53:36.642Z,97488.80
2023-06-19T11:56:05.064Z,97482.67
2023-06-19T11:58:32.971Z,97477.18
2023-06-19T12:01:00.967Z,97477.03
2023-06-19T12:03:29.232Z,97481.35
2023-06-19T12:05:57.461Z,97476.83
2023-06-19T12:08:25.405Z,97473.75
2023-06-19T12:10:53.620Z,97477.26
2023-06-19T12:13:21.865Z,97477.98
2023-06-19T12:15:52.579Z,97477.09
2023-06-19T12:18:20.746Z,97473.05
2023-06-19T12:20:48.750Z,97467.23
2023-06-19T12:23:16.859Z,97465.75
2023-06-19T12:25:44.832Z,97467.64
2023-06-19T12:28:17.886Z,97462.27
2023-06-19T12:30:46.942Z,97454.39
2023-06-19T12:33:15.140Z,97455.78
2023-06-19T12:35:43.246Z,97458.50
2023-06-19T12:38:11.708Z,97464.53
2023-06-19T12:40:40.087Z,97466.77
2023-06-19T12:43:08.149Z,97472.20
2023-06-19T12:45:36.202Z,97492.00
2023-06-19T12:48:04.921Z,97501.48
2023-06-19T12:50:33.194Z,97497.64
2023-06-19T12:53:01.232Z,97498.98
2023-06-19T12:55:29.183Z,97503.26
2023-06-19T12:57:57.323Z,97510.08
2023-06-19T13:00:25.428Z,97510.05
2023-06-19T13:02:53.725Z,97508.39
2023-06-19T13:05:22.114Z,97506.97
2023-06-19T13:07:50.099Z,97502.93
2023-06-19T13:10:18.114Z,97504.02
2023-06-19T13:12:46.207Z,97504.04
2023-06-19T13:15:14.140Z,97500.56
2023-06-19T13:17:42.174Z,97499.91
2023-06-19T13:20:10.543Z,97498.53
2023-06-19T13:22:38.786Z,97498.25
2023-06-19T13:25:07.423Z,97493.56
2023-06-19T13:27:35.561Z,97486.19
2023-06-19T13:30:05.983Z,97488.78
2023-06-19T13:32:36.937Z,97491.35
2023-06-19T13:35:07.061Z,97492.06
2023-06-19T13:37:41.739Z,97492.20
2023-06-19T13:40:10.964Z,97490.83
2023-06-19T13:42:39.898Z,97495.55
2023-06-19T13:45:10.232Z,97496.35
2023-06-19T13:47:38.390Z,97492.39
2023-06-19T13:50:08.094Z,97483.36
2023-06-19T13:52:37.564Z,97479.30
2023-06-19T13:55:06.021Z,97480.11
2023-06-19T13:57:34.004Z,97481.27
2023-06-19T14:00:02.172Z,97475.77
2023-06-19T14:02:42.066Z,97474.13
2023-06-19T14:05:11.152Z,97472.33
2023-06-19T14:07:40.419Z,97471.08
2023-06-19T14:10:09.166Z,97470.66
2023-06-19T14:12:37.413Z,97468.20
2023-06-19T14:15:09.653Z,97468.52
2023-06-19T14:17:38.013Z,97470.48
2023-06-19T14:20:12.146Z,97465.29
2023-06-19T14:22:40.618Z,97459.64
2023-06-19T14:25:09.576Z,97459.52
2023-06-19T14:27:37.664Z,97465.83
2023-06-19T14:30:09.074Z,97463.08
2023-06-19T14:32:38.192Z,97459.76
2023-06-19T14:35:07.321Z,97459.59
2023-06-19T14:37:35.489Z,97460.31
2023-06-19T14:40:04.280Z,97459.52
2023-06-19T14:42:32.311Z,97460.33
2023-06-19T14:45:00.278Z,97462.21
2023-06-19T14:47:28.602Z,97460.52
2023-06-19T14:49:57.098Z,97455.77
2023-06-19T14:52:25.430Z,97450.33
2023-06-19T14:54:53.795Z,97452.04
2023-06-19T14:57:26.928Z,97449.14
2023-06-19T14:59:57.072Z,97444.48
2023-06-19T15:02:25.107Z,97448.30
2023-06-19T15:05:05.103Z,97447.52
2023-06-19T15:07:36.266Z,97445.88
2023-06-19T15:10:05.491Z,97445.49
2023-06-19T15:12:35.902Z,97449.93
2023-06-19T15:15:05.023Z,97451.85
2023-06-19T15:17:33.155Z,97453.70
2023-06-19T15:20:01.174Z,97449.91
2023-06-19T15:22:29.655Z,97448.84
2023-06-19T15:24:57.753Z,97447.98
2023-06-19T15:27:26.013Z,97448.89
2023-06-19T15:29:54.369Z,97445.70
2023-06-19T15:32:22.623Z,97445.55
2023-06-19T15:34:50.499Z,97442.16
2023-06-19T15:37:18.575Z,97442.80
2023-06-19T15:39:46.607Z,97442.81
2023-06-19T15:42:14.606Z,97442.89
2023-06-19T15:44:42.509Z,97443.91
2023-06-19T15:47:11.154Z,97445.27
2023-06-19T15:49:39.225Z,97450.35
2023-06-19T15:52:07.282Z,97452.10
2023-06-19T15:54:35.403Z,97454.81
2023-06-19T15:57:03.765Z,97459.23
2023-06-19T15:59:32.130Z,97455.61
2023-06-19T16:02:00.215Z,97452.79
2023-06-19T16:04:28.681Z,97453.83
2023-06-19T16:06:56.582Z,97450.84
2023-06-19T16:09:27.406Z,97452.92
2023-06-19T16:11:55.571Z,97452.25
2023-06-19T16:14:23.689Z,97450.23
2023-06-19T16:16:51.682Z,97456.66
2023-06-19T16:19:21.525Z,97457.86
2023-06-19T16:21:49.914Z,97455.48
2023-06-19T16:24:18.351Z,97461.02
2023-06-19T16:26:46.417Z,97466.70
2023-06-19T16:29:14.747Z,97468.40
2023-06-19T16:31:45.402Z,97470.10
2023-06-19T16:34:15.197Z,97470.63
2023-06-19T16:36:43.284Z,97474.50
2023-06-19T16:39:13.691Z,97479.20
2023-06-19T16:41:42.049Z,97480.95
2023-06-19T16:44:10.042Z,97478.15
2023-06-19T16:46:38.680Z,97482.73
2023-06-19T16:49:06.809Z,97484.36
2023-06-19T16:51:34.775Z,97486.16
2023-06-19T16:54:02.921Z,97488.48
2023-06-19T16:56:30.928Z,97484.09
2023-06-19T16:58:59.129Z,97480.94
2023-06-19T17:01:27.074Z,97480.84
2023-06-19T17:03:55.305Z,97479.71
2023-06-19T17:06:25.360Z,97477.42
2023-06-19T17:08:53.571Z,97479.58
2023-06-19T17:11:21.741Z,97480.29
2023-06-19T17:13:49.652Z,97479.05
2023-06-19T17:16:17.660Z,97476.96
2023-06-19T17:18:45.833Z,97473.27
2023-06-19T17:21:13.777Z,97474.90
2023-06-19T17:23:41.867Z,97475.70
2023-06-19T17:26:09.936Z,97475.38
2023-06-19T17:28:37.992Z,97472.31
2023-06-19T17:31:08.647Z,97471.83
2023-06-19T17:33:36.679Z,97473.23
2023-06-19T17:36:04.808Z,97470.23
2023-06-19T17:38:32.860Z,97471.05
2023-06-19T17:41:01.666Z,97472.71
2023-06-19T17:43:29.846Z,97470.46
2023-06-19T17:45:57.786Z,97471.89
2023-06-19T17:48:25.655Z,97477.30
2023-06-19T17:50:53.738Z,97477.02
2023-06-19T17:53:21.810Z,97482.34
2023-06-19T17:55:49.669Z,97478.90
2023-06-19T17:58:17.752Z,97481.34
2023-06-19T18:00:45.727Z,97479.75
2023-06-19T18:03:13.853Z,97480.92
2023-06-19T18:05:41.846Z,97484.11
2023-06-19T18:08:09.828Z,97488.41
2023-06-19T18:10:37.861Z,97486.73
2023-06-19T18:13:05.866Z,97484.96
2023-06-19T18:15:33.855Z,97488.11
2023-06-19T18:18:01.943Z,97493.92
2023-06-19T18:20:30.159Z,97492.98
2023-06-19T18:22:58.111Z,97496.16
2023-06-19T18:25:26.013Z,97502.02
2023-06-19T18:27:54.245Z,97503.04
2023-06-19T18:30:22.916Z,97504.31
2023-06-19T18:32:52.621Z,97506.24
2023-06-19T18:35:22.143Z,97510.52
2023-06-19T18:37:50.402Z,97519.15
2023-06-19T18:40:22.608Z,97524.70
2023-06-19T18:42:51.518Z,97526.89
2023-06-19T18:45:20.000Z,97530.84
2023-06-19T18:47:48.420Z,97535.33
2023-06-19T18:50:17.545Z,97538.56
2023-06-19T18:52:46.152Z,97541.58
2023-06-19T18:55:14.445Z,97543.83
2023-06-19T18:57:43.013Z,97548.48
2023-06-19T19:00:14.267Z,97553.09
2023-06-19T19:02:45.323Z,97556.77
2023-06-19T19:05:14.349Z,97559.03
2023-06-19T19:07:44.413Z,97559.17
2023-06-19T19:10:13.652Z,97561.33
2023-06-19T19:12:43.421Z,97562.84
2023-06-19T19:15:11.899Z,97561.02
2023-06-19T19:17:40.406Z,97561.98
2023-06-19T19:20:17.499Z,97563.23
2023-06-19T19:22:49.577Z,97568.34
2023-06-19T19:25:19.645Z,97570.64
2023-06-19T19:27:48.125Z,97574.98
2023-06-19T19:30:16.381Z,97579.25
2023-06-19T19:32:44.480Z,97581.08
2023-06-19T19:35:12.741Z,97582.50
2023-06-19T19:37:40.842Z,97582.88
2023-06-19T19:40:09.675Z,97585.73
2023-06-19T19:42:37.694Z,97582.22
2023-06-19T19:45:06.854Z,97584.23
2023-06-19T19:47:36.171Z,97590.59
2023-06-19T19:50:04.959Z,97592.29
2023-06-19T19:52:33.052Z,97595.02
2023-06-19T19:55:01.112Z,97595.88
2023-06-19T19:57:29.649Z,97596.25
2023-06-19T19:59:58.056Z,97604.98
2023-06-19T20:02:27.174Z,97612.02
2023-06-19T20:04:55.193Z,97602.90
2023-06-19T20:07:23.119Z,97604.58
2023-06-19T20:09:51.121Z,97607.96
2023-06-19T20:12:21.860Z,97609.92
2023-06-19T20:14:50.374Z,97606.96
2023-06-19T20:17:18.446Z,97605.01
2023-06-19T20:19:46.589Z,97603.83
2023-06-19T20:22:14.788Z,97601.17
2023-06-19T20:24:42.796Z,97603.52
2023-06-19T20:27:14.709Z,97607.67
2023-06-19T20:29:42.994Z,97605.56
2023-06-19T20:32:10.982Z,97606.82
2023-06-19T20:34:39.238Z,97605.43
2023-06-19T20:37:07.460Z,97608.02
2023-06-19T20:39:35.388Z,97609.35
2023-06-19T20:42:03.715Z,97608.80
2023-06-19T20:44:36.168Z,97615.15
2023-06-19T20:47:04.772Z,97615.09
2023-06-19T20:49:32.709Z,97614.15
2023-06-19T20:52:01.067Z,97613.36
2023-06-19T20:54:29.032Z,97613.50
2023-06-19T20:56:56.971Z,97610.70
2023-06-19T20:59:25.178Z,97614.14
2023-06-19T21:01:57.529Z,97612.02
2023-06-19T21:04:25.605Z,97613.65
2023-06-19T21:06:54.646Z,97610.41
2023-06-19T21:09:23.596Z,97608.81
2023-06-19T21:11:51.737Z,97607.80
2023-06-19T21:14:19.788Z,97609.65
2023-06-19T21:16:48.383Z,97613.36
2023-06-19T21:19:17.229Z,97615.98
2023-06-19T21:21:45.996Z,97611.89
2023-06-19T21:24:13.967Z,97616.02
2023-06-19T21:26:42.071Z,97618.29
2023-06-19T21:29:10.057Z,97621.37
2023-06-19T21:31:38.148Z,97622.12
2023-06-19T21:34:06.500Z,97617.27
2023-06-19T21:36:34.730Z,97615.59
2023-06-19T21:39:03.948Z,97611.01
2023-06-19T21:41:32.178Z,97612.14
2023-06-19T21:44:00.501Z,97610.73
2023-06-19T21:46:28.503Z,97610.80
2023-06-19T21:48:56.752Z,97612.16
2023-06-19T21:51:25.124Z,97608.65
2023-06-19T21:53:53.273Z,97609.60
2023-06-19T21:56:21.252Z,97610.66
2023-06-19T21:58:49.159Z,97612.83
2023-06-19T22:01:17.132Z,97615.66
2023-06-19T22:03:45.349Z,97619.23
2023-06-19T22:06:14.030Z,97620.11
2023-06-19T22:08:43.331Z,97616.38
2023-06-19T22:11:11.816Z,97616.05
2023-06-19T22:13:40.573Z,97616.57
2023-06-19T22:16:09.217Z,97614.23
2023-06-19T22:18:37.501Z,97615.48
2023-06-19T22:21:05.545Z,97609.46
2023-06-19T22:23:34.018Z,97606.93
2023-06-19T22:26:01.988Z,97602.55
2023-06-19T22:28:30.157Z,97600.77
2023-06-19T22:30:58.634Z,97600.64
2023-06-19T22:33:26.908Z,97601.61
2023-06-19T22:35:55.068Z,97604.95
2023-06-19T22:38:23.582Z,97605.09
2023-06-19T22:40:52.032Z,97604.05
2023-06-19T22:43:20.216Z,97603.79
2023-06-19T22:45:48.390Z,97604.31
2023-06-19T22:48:19.666Z,97601.86
2023-06-19T22:50:48.324Z,97602.62
2023-06-19T22:53:16.445Z,97598.89
2023-06-19T22:55:44.372Z,97596.26
2023-06-19T22:58:12.365Z,97599.01
2023-06-19T23:00:40.304Z,97601.63
2023-06-19T23:03:08.533Z,97602.70
2023-06-19T23:05:37.165Z,97605.29
2023-06-19T23:08:05.458Z,97601.86
2023-06-19T23:10:33.371Z,97597.19
2023-06-19T23:13:01.329Z,97598.20
2023-06-19T23:15:29.430Z,97593.41
2023-06-19T23:17:57.483Z,97591.41
2023-06-19T23:20:25.569Z,97588.90
2023-06-19T23:22:53.469Z,97595.73
2023-06-19T23:25:22.387Z,97594.08
2023-06-19T23:27:50.430Z,97591.34
2023-06-19T23:30:18.879Z,97594.62
2023-06-19T23:32:46.910Z,97594.55
2023-06-19T23:35:14.940Z,97593.35
2023-06-19T23:37:43.203Z,97593.46
2023-06-19T23:40:11.662Z,97594.58
2023-06-19T23:42:39.727Z,97592.84
2023-06-19T23:45:08.458Z,97599.42
2023-06-19T23:47:36.615Z,97597.83
2023-06-19T23:50:05.431Z,97595.59
2023-06-19T23:52:43.046Z,97594.42
2023-06-19T23:55:15.867Z,97591.38
2023-06-19T23:57:43.864Z,97587.53
